Terminal Aerodrome Forecast
Issued by NWS Memphis, TN

Home | Current Version | Previous Version | Text Only | Print | Product List | Glossary On
Versions: 1 2 3 4 5 6 7 8 9 10 11 12 13 14 15 16 17 18 19 20 21 22 23 24 25 26
000
FTUS44 KMEG 030600 AAA
TAFMKL
TAF AMD
KMKL 030642Z 0307/0406 VRB03KT 3SM BR SCT003 BKN150
      TEMPO 0307/0309 1SM BR BKN003
     FM030900 VRB03KT 3SM BR BKN005 BKN020
      TEMPO 0310/0313 1SM BR BKN003
     FM031700 19004KT P6SM BKN035 BKN250
     FM031900 20006KT P6SM SCT040 SCT250=

USA.gov is the U.S. government's official web portal to all federal, state and local government web resources and services.